sensor_id;sensor_type;location;lat;lon;timestamp;P1;durP1;ratioP1;P2;durP2;ratioP2
2338;SDS011;1180;51.438;6.978;2023-02-28T00:00:10;4.60;;;4.10;;
2338;SDS011;1180;51.438;6.978;2023-02-28T00:02:38;6.65;;;4.57;;
2338;SDS011;1180;51.438;6.978;2023-02-28T00:05:04;5.38;;;4.50;;
2338;SDS011;1180;51.438;6.978;2023-02-28T00:07:30;5.38;;;3.72;;
2338;SDS011;1180;51.438;6.978;2023-02-28T00:09:56;5.27;;;4.33;;
2338;SDS011;1180;51.438;6.978;2023-02-28T00:12:22;4.33;;;3.77;;
2338;SDS011;1180;51.438;6.978;2023-02-28T00:14:47;4.87;;;3.50;;
2338;SDS011;1180;51.438;6.978;2023-02-28T00:17:13;4.20;;;3.50;;
2338;SDS011;1180;51.438;6.978;2023-02-28T00:19:38;5.00;;;4.37;;
2338;SDS011;1180;51.438;6.978;2023-02-28T00:22:04;4.20;;;3.33;;
2338;SDS011;1180;51.438;6.978;2023-02-28T00:24:29;7.13;;;3.60;;
2338;SDS011;1180;51.438;6.978;2023-02-28T00:26:54;3.40;;;2.93;;
2338;SDS011;1180;51.438;6.978;2023-02-28T00:29:20;3.73;;;2.90;;
2338;SDS011;1180;51.438;6.978;2023-02-28T00:31:45;7.57;;;4.50;;
2338;SDS011;1180;51.438;6.978;2023-02-28T00:34:10;5.50;;;3.87;;
2338;SDS011;1180;51.438;6.978;2023-02-28T00:36:36;4.90;;;2.90;;
2338;SDS011;1180;51.438;6.978;2023-02-28T00:39:01;5.33;;;2.93;;
2338;SDS011;1180;51.438;6.978;2023-02-28T00:41:26;5.00;;;3.00;;
2338;SDS011;1180;51.438;6.978;2023-02-28T00:43:52;3.40;;;3.10;;
2338;SDS011;1180;51.438;6.978;2023-02-28T00:46:17;4.03;;;3.13;;
2338;SDS011;1180;51.438;6.978;2023-02-28T00:48:42;3.97;;;3.07;;
2338;SDS011;1180;51.438;6.978;2023-02-28T00:51:08;5.33;;;3.20;;
2338;SDS011;1180;51.438;6.978;2023-02-28T00:53:33;5.03;;;2.93;;
2338;SDS011;1180;51.438;6.978;2023-02-28T00:55:59;4.20;;;3.23;;
2338;SDS011;1180;51.438;6.978;2023-02-28T00:58:24;5.10;;;2.70;;
2338;SDS011;1180;51.438;6.978;2023-02-28T01:00:50;3.70;;;3.23;;
2338;SDS011;1180;51.438;6.978;2023-02-28T01:03:18;3.40;;;2.80;;
2338;SDS011;1180;51.438;6.978;2023-02-28T01:05:45;5.60;;;2.90;;
2338;SDS011;1180;51.438;6.978;2023-02-28T01:08:11;4.05;;;3.03;;
2338;SDS011;1180;51.438;6.978;2023-02-28T01:10:36;4.40;;;2.80;;
2338;SDS011;1180;51.438;6.978;2023-02-28T01:13:03;4.70;;;2.80;;
2338;SDS011;1180;51.438;6.978;2023-02-28T01:15:29;4.87;;;2.87;;
2338;SDS011;1180;51.438;6.978;2023-02-28T01:17:54;3.07;;;2.77;;
2338;SDS011;1180;51.438;6.978;2023-02-28T01:20:19;4.00;;;2.50;;
2338;SDS011;1180;51.438;6.978;2023-02-28T01:22:45;3.97;;;3.53;;
2338;SDS011;1180;51.438;6.978;2023-02-28T01:25:11;4.20;;;3.38;;
2338;SDS011;1180;51.438;6.978;2023-02-28T01:27:37;4.17;;;3.40;;
2338;SDS011;1180;51.438;6.978;2023-02-28T01:30:04;5.20;;;3.63;;
2338;SDS011;1180;51.438;6.978;2023-02-28T01:32:30;6.25;;;4.55;;
2338;SDS011;1180;51.438;6.978;2023-02-28T01:34:57;4.82;;;3.40;;
2338;SDS011;1180;51.438;6.978;2023-02-28T01:37:22;6.70;;;3.90;;
2338;SDS011;1180;51.438;6.978;2023-02-28T01:39:48;6.43;;;4.20;;
2338;SDS011;1180;51.438;6.978;2023-02-28T01:42:13;6.67;;;4.40;;
2338;SDS011;1180;51.438;6.978;2023-02-28T01:47:41;4.25;;;3.33;;
2338;SDS011;1180;51.438;6.978;2023-02-28T01:50:15;6.63;;;3.55;;
2338;SDS011;1180;51.438;6.978;2023-02-28T01:52:44;5.20;;;3.45;;
2338;SDS011;1180;51.438;6.978;2023-02-28T01:55:11;7.78;;;5.03;;
2338;SDS011;1180;51.438;6.978;2023-02-28T01:57:39;4.05;;;3.20;;
2338;SDS011;1180;51.438;6.978;2023-02-28T02:00:14;5.72;;;3.53;;
2338;SDS011;1180;51.438;6.978;2023-02-28T02:02:42;3.72;;;3.20;;
2338;SDS011;1180;51.438;6.978;2023-02-28T02:05:12;4.30;;;3.50;;
2338;SDS011;1180;51.438;6.978;2023-02-28T02:07:41;4.20;;;2.97;;
2338;SDS011;1180;51.438;6.978;2023-02-28T02:18:22;4.20;;;3.30;;
2338;SDS011;1180;51.438;6.978;2023-02-28T02:23:36;4.25;;;3.55;;
2338;SDS011;1180;51.438;6.978;2023-02-28T02:29:23;3.25;;;2.70;;
2338;SDS011;1180;51.438;6.978;2023-02-28T02:35:39;4.75;;;2.92;;
2338;SDS011;1180;51.438;6.978;2023-02-28T02:40:46;4.00;;;3.30;;
2338;SDS011;1180;51.438;6.978;2023-02-28T02:46:29;3.63;;;2.70;;
2338;SDS011;1180;51.438;6.978;2023-02-28T02:48:59;5.53;;;3.10;;
2338;SDS011;1180;51.438;6.978;2023-02-28T02:51:28;5.07;;;3.38;;
2338;SDS011;1180;51.438;6.978;2023-02-28T02:53:59;3.95;;;3.17;;
2338;SDS011;1180;51.438;6.978;2023-02-28T02:56:33;4.88;;;3.38;;
2338;SDS011;1180;51.438;6.978;2023-02-28T02:59:01;3.42;;;3.13;;
2338;SDS011;1180;51.438;6.978;2023-02-28T03:01:30;3.42;;;2.70;;
2338;SDS011;1180;51.438;6.978;2023-02-28T03:03:57;5.07;;;3.13;;
2338;SDS011;1180;51.438;6.978;2023-02-28T03:06:25;3.90;;;2.30;;
2338;SDS011;1180;51.438;6.978;2023-02-28T03:08:51;2.53;;;2.33;;
2338;SDS011;1180;51.438;6.978;2023-02-28T03:11:17;3.87;;;3.13;;
2338;SDS011;1180;51.438;6.978;2023-02-28T03:13:49;3.00;;;2.30;;
2338;SDS011;1180;51.438;6.978;2023-02-28T03:19:11;8.82;;;3.10;;
2338;SDS011;1180;51.438;6.978;2023-02-28T03:21:49;3.13;;;2.60;;
2338;SDS011;1180;51.438;6.978;2023-02-28T03:24:34;2.50;;;2.30;;
2338;SDS011;1180;51.438;6.978;2023-02-28T03:30:12;5.22;;;2.67;;
2338;SDS011;1180;51.438;6.978;2023-02-28T03:32:53;4.72;;;2.50;;
2338;SDS011;1180;51.438;6.978;2023-02-28T03:35:24;5.20;;;3.10;;
2338;SDS011;1180;51.438;6.978;2023-02-28T03:38:13;8.85;;;2.80;;
2338;SDS011;1180;51.438;6.978;2023-02-28T03:40:48;2.83;;;2.55;;
2338;SDS011;1180;51.438;6.978;2023-02-28T03:43:22;5.72;;;2.72;;
2338;SDS011;1180;51.438;6.978;2023-02-28T03:45:54;5.13;;;2.22;;
2338;SDS011;1180;51.438;6.978;2023-02-28T03:48:26;2.65;;;1.80;;
2338;SDS011;1180;51.438;6.978;2023-02-28T03:50:57;3.00;;;2.40;;
2338;SDS011;1180;51.438;6.978;2023-02-28T03:53:25;4.13;;;2.75;;
2338;SDS011;1180;51.438;6.978;2023-02-28T03:56:11;4.10;;;2.65;;
2338;SDS011;1180;51.438;6.978;2023-02-28T03:58:41;3.50;;;2.03;;
2338;SDS011;1180;51.438;6.978;2023-02-28T04:01:12;3.10;;;2.80;;
2338;SDS011;1180;51.438;6.978;2023-02-28T04:03:44;4.90;;;2.78;;
2338;SDS011;1180;51.438;6.978;2023-02-28T04:06:14;4.13;;;2.27;;
2338;SDS011;1180;51.438;6.978;2023-02-28T04:08:43;2.88;;;2.50;;
2338;SDS011;1180;51.438;6.978;2023-02-28T04:11:17;3.37;;;2.03;;
2338;SDS011;1180;51.438;6.978;2023-02-28T04:13:43;4.50;;;2.38;;
2338;SDS011;1180;51.438;6.978;2023-02-28T04:16:09;4.47;;;3.20;;
2338;SDS011;1180;51.438;6.978;2023-02-28T04:18:38;2.78;;;2.10;;
2338;SDS011;1180;51.438;6.978;2023-02-28T04:21:08;5.43;;;3.15;;
2338;SDS011;1180;51.438;6.978;2023-02-28T04:23:34;3.30;;;2.50;;
2338;SDS011;1180;51.438;6.978;2023-02-28T04:25:59;4.07;;;2.10;;
2338;SDS011;1180;51.438;6.978;2023-02-28T04:28:25;2.67;;;2.47;;
2338;SDS011;1180;51.438;6.978;2023-02-28T04:30:54;2.57;;;2.37;;
2338;SDS011;1180;51.438;6.978;2023-02-28T04:33:21;5.35;;;2.67;;
2338;SDS011;1180;51.438;6.978;2023-02-28T04:35:46;3.53;;;2.13;;
2338;SDS011;1180;51.438;6.978;2023-02-28T04:38:11;3.60;;;2.20;;
2338;SDS011;1180;51.438;6.978;2023-02-28T04:40:37;3.57;;;2.27;;
2338;SDS011;1180;51.438;6.978;2023-02-28T04:43:02;3.43;;;2.50;;
2338;SDS011;1180;51.438;6.978;2023-02-28T04:45:28;3.20;;;2.60;;
2338;SDS011;1180;51.438;6.978;2023-02-28T04:47:57;3.58;;;2.50;;
2338;SDS011;1180;51.438;6.978;2023-02-28T04:50:22;6.70;;;3.23;;
2338;SDS011;1180;51.438;6.978;2023-02-28T04:52:48;4.63;;;2.20;;
2338;SDS011;1180;51.438;6.978;2023-02-28T04:55:13;2.90;;;2.27;;
2338;SDS011;1180;51.438;6.978;2023-02-28T04:57:39;4.50;;;2.37;;
2338;SDS011;1180;51.438;6.978;2023-02-28T05:00:04;3.20;;;2.57;;
2338;SDS011;1180;51.438;6.978;2023-02-28T05:02:33;3.67;;;2.22;;
2338;SDS011;1180;51.438;6.978;2023-02-28T05:05:00;3.05;;;2.40;;
2338;SDS011;1180;51.438;6.978;2023-02-28T05:07:25;3.57;;;2.70;;
2338;SDS011;1180;51.438;6.978;2023-02-28T05:09:50;2.93;;;2.63;;
2338;SDS011;1180;51.438;6.978;2023-02-28T05:12:16;4.33;;;2.33;;
2338;SDS011;1180;51.438;6.978;2023-02-28T05:14:41;4.53;;;2.80;;
2338;SDS011;1180;51.438;6.978;2023-02-28T05:17:07;3.70;;;2.93;;
2338;SDS011;1180;51.438;6.978;2023-02-28T05:19:33;4.03;;;2.67;;
2338;SDS011;1180;51.438;6.978;2023-02-28T05:21:59;4.67;;;2.57;;
2338;SDS011;1180;51.438;6.978;2023-02-28T05:24:24;4.10;;;2.67;;
2338;SDS011;1180;51.438;6.978;2023-02-28T05:29:21;3.10;;;2.78;;
2338;SDS011;1180;51.438;6.978;2023-02-28T05:31:47;3.00;;;2.73;;
2338;SDS011;1180;51.438;6.978;2023-02-28T05:34:12;4.53;;;2.60;;
2338;SDS011;1180;51.438;6.978;2023-02-28T05:36:40;5.50;;;3.20;;
2338;SDS011;1180;51.438;6.978;2023-02-28T05:39:06;4.77;;;3.23;;
2338;SDS011;1180;51.438;6.978;2023-02-28T05:41:38;3.95;;;3.10;;
2338;SDS011;1180;51.438;6.978;2023-02-28T05:44:05;4.90;;;3.20;;
2338;SDS011;1180;51.438;6.978;2023-02-28T05:46:30;3.70;;;2.47;;
2338;SDS011;1180;51.438;6.978;2023-02-28T05:48:55;4.43;;;3.13;;
2338;SDS011;1180;51.438;6.978;2023-02-28T05:51:22;3.60;;;2.42;;
2338;SDS011;1180;51.438;6.978;2023-02-28T05:53:48;5.50;;;2.90;;
2338;SDS011;1180;51.438;6.978;2023-02-28T05:56:14;3.83;;;2.67;;
2338;SDS011;1180;51.438;6.978;2023-02-28T05:58:39;5.30;;;2.60;;
2338;SDS011;1180;51.438;6.978;2023-02-28T06:04:13;3.63;;;2.63;;
2338;SDS011;1180;51.438;6.978;2023-02-28T06:06:42;4.75;;;2.92;;
2338;SDS011;1180;51.438;6.978;2023-02-28T06:09:12;3.55;;;2.40;;
2338;SDS011;1180;51.438;6.978;2023-02-28T06:11:37;4.87;;;2.53;;
2338;SDS011;1180;51.438;6.978;2023-02-28T06:14:03;3.20;;;2.40;;
2338;SDS011;1180;51.438;6.978;2023-02-28T06:16:29;3.97;;;2.47;;
2338;SDS011;1180;51.438;6.978;2023-02-28T06:18:59;3.05;;;2.70;;
2338;SDS011;1180;51.438;6.978;2023-02-28T06:21:27;3.70;;;2.95;;
2338;SDS011;1180;51.438;6.978;2023-02-28T06:23:53;4.13;;;2.88;;
2338;SDS011;1180;51.438;6.978;2023-02-28T06:26:19;3.73;;;2.20;;
2338;SDS011;1180;51.438;6.978;2023-02-28T06:28:44;3.20;;;2.30;;
2338;SDS011;1180;51.438;6.978;2023-02-28T06:31:10;6.20;;;3.30;;
2338;SDS011;1180;51.438;6.978;2023-02-28T06:33:37;3.00;;;2.65;;
2338;SDS011;1180;51.438;6.978;2023-02-28T06:36:04;5.43;;;2.67;;
2338;SDS011;1180;51.438;6.978;2023-02-28T06:38:31;5.03;;;2.83;;
2338;SDS011;1180;51.438;6.978;2023-02-28T06:40:57;3.58;;;2.55;;
2338;SDS011;1180;51.438;6.978;2023-02-28T06:43:24;4.60;;;2.97;;
2338;SDS011;1180;51.438;6.978;2023-02-28T06:45:53;8.07;;;2.88;;
2338;SDS011;1180;51.438;6.978;2023-02-28T06:48:19;4.38;;;3.22;;
2338;SDS011;1180;51.438;6.978;2023-02-28T06:50:44;3.87;;;2.60;;
2338;SDS011;1180;51.438;6.978;2023-02-28T06:53:10;4.03;;;3.07;;
2338;SDS011;1180;51.438;6.978;2023-02-28T06:55:37;3.70;;;3.20;;
2338;SDS011;1180;51.438;6.978;2023-02-28T06:58:03;5.43;;;3.53;;
2338;SDS011;1180;51.438;6.978;2023-02-28T07:00:38;6.10;;;3.47;;
2338;SDS011;1180;51.438;6.978;2023-02-28T07:03:03;6.80;;;2.83;;
2338;SDS011;1180;51.438;6.978;2023-02-28T07:05:29;4.17;;;2.40;;
2338;SDS011;1180;51.438;6.978;2023-02-28T07:07:54;5.10;;;2.80;;
2338;SDS011;1180;51.438;6.978;2023-02-28T07:10:19;4.70;;;3.20;;
2338;SDS011;1180;51.438;6.978;2023-02-28T07:12:45;3.00;;;2.63;;
2338;SDS011;1180;51.438;6.978;2023-02-28T07:15:10;5.10;;;3.17;;
2338;SDS011;1180;51.438;6.978;2023-02-28T07:17:36;5.83;;;3.23;;
2338;SDS011;1180;51.438;6.978;2023-02-28T07:20:01;4.43;;;3.40;;
2338;SDS011;1180;51.438;6.978;2023-02-28T07:22:29;3.55;;;3.17;;
2338;SDS011;1180;51.438;6.978;2023-02-28T07:24:54;3.33;;;2.83;;
2338;SDS011;1180;51.438;6.978;2023-02-28T07:27:20;3.77;;;2.93;;
2338;SDS011;1180;51.438;6.978;2023-02-28T07:29:49;3.80;;;3.00;;
2338;SDS011;1180;51.438;6.978;2023-02-28T07:32:15;5.70;;;3.55;;
2338;SDS011;1180;51.438;6.978;2023-02-28T07:34:40;5.00;;;3.73;;
2338;SDS011;1180;51.438;6.978;2023-02-28T07:37:05;5.77;;;2.93;;
2338;SDS011;1180;51.438;6.978;2023-02-28T07:39:31;5.00;;;3.60;;
2338;SDS011;1180;51.438;6.978;2023-02-28T07:41:56;8.23;;;3.60;;
2338;SDS011;1180;51.438;6.978;2023-02-28T07:44:22;4.73;;;3.70;;
2338;SDS011;1180;51.438;6.978;2023-02-28T07:46:47;5.53;;;3.60;;
2338;SDS011;1180;51.438;6.978;2023-02-28T07:49:12;3.23;;;2.97;;
2338;SDS011;1180;51.438;6.978;2023-02-28T07:51:38;4.83;;;3.07;;
2338;SDS011;1180;51.438;6.978;2023-02-28T07:54:03;3.77;;;3.47;;
2338;SDS011;1180;51.438;6.978;2023-02-28T07:56:28;8.07;;;3.67;;
2338;SDS011;1180;51.438;6.978;2023-02-28T07:58:54;4.00;;;2.80;;
2338;SDS011;1180;51.438;6.978;2023-02-28T08:01:19;6.03;;;3.00;;
2338;SDS011;1180;51.438;6.978;2023-02-28T08:03:45;4.60;;;3.20;;
2338;SDS011;1180;51.438;6.978;2023-02-28T08:06:16;5.43;;;3.20;;
2338;SDS011;1180;51.438;6.978;2023-02-28T08:08:44;4.13;;;3.08;;
2338;SDS011;1180;51.438;6.978;2023-02-28T08:11:09;3.75;;;2.67;;
2338;SDS011;1180;51.438;6.978;2023-02-28T08:13:35;2.77;;;2.53;;
2338;SDS011;1180;51.438;6.978;2023-02-28T08:16:01;3.70;;;2.70;;
2338;SDS011;1180;51.438;6.978;2023-02-28T08:18:26;5.95;;;2.70;;
2338;SDS011;1180;51.438;6.978;2023-02-28T08:20:52;4.07;;;2.60;;
2338;SDS011;1180;51.438;6.978;2023-02-28T08:23:17;5.10;;;3.43;;
2338;SDS011;1180;51.438;6.978;2023-02-28T08:25:42;4.50;;;2.67;;
2338;SDS011;1180;51.438;6.978;2023-02-28T08:28:08;4.47;;;2.93;;
2338;SDS011;1180;51.438;6.978;2023-02-28T08:30:33;3.33;;;3.03;;
2338;SDS011;1180;51.438;6.978;2023-02-28T08:32:58;5.20;;;3.30;;
2338;SDS011;1180;51.438;6.978;2023-02-28T08:35:24;8.10;;;3.33;;
2338;SDS011;1180;51.438;6.978;2023-02-28T08:37:52;5.33;;;3.27;;
2338;SDS011;1180;51.438;6.978;2023-02-28T08:40:17;4.30;;;2.97;;
2338;SDS011;1180;51.438;6.978;2023-02-28T08:42:47;2.80;;;2.50;;
2338;SDS011;1180;51.438;6.978;2023-02-28T08:45:13;5.15;;;3.65;;
2338;SDS011;1180;51.438;6.978;2023-02-28T08:47:39;6.85;;;3.47;;
2338;SDS011;1180;51.438;6.978;2023-02-28T08:50:05;4.93;;;4.43;;
2338;SDS011;1180;51.438;6.978;2023-02-28T08:52:31;5.65;;;3.95;;
2338;SDS011;1180;51.438;6.978;2023-02-28T08:54:57;5.30;;;3.83;;
2338;SDS011;1180;51.438;6.978;2023-02-28T08:57:22;6.37;;;3.43;;
2338;SDS011;1180;51.438;6.978;2023-02-28T08:59:47;5.20;;;3.80;;
2338;SDS011;1180;51.438;6.978;2023-02-28T09:02:13;6.67;;;3.50;;
2338;SDS011;1180;51.438;6.978;2023-02-28T09:04:40;10.07;;;3.92;;
2338;SDS011;1180;51.438;6.978;2023-02-28T09:07:06;4.82;;;3.35;;
2338;SDS011;1180;51.438;6.978;2023-02-28T09:09:32;4.77;;;3.20;;
2338;SDS011;1180;51.438;6.978;2023-02-28T09:11:57;5.17;;;3.20;;
2338;SDS011;1180;51.438;6.978;2023-02-28T09:14:23;4.90;;;3.13;;
2338;SDS011;1180;51.438;6.978;2023-02-28T09:16:48;5.93;;;3.30;;
2338;SDS011;1180;51.438;6.978;2023-02-28T09:19:14;12.20;;;4.47;;
2338;SDS011;1180;51.438;6.978;2023-02-28T09:21:39;4.00;;;3.33;;
2338;SDS011;1180;51.438;6.978;2023-02-28T09:24:05;3.37;;;2.90;;
2338;SDS011;1180;51.438;6.978;2023-02-28T09:26:30;2.97;;;2.67;;
2338;SDS011;1180;51.438;6.978;2023-02-28T09:28:56;3.67;;;2.90;;
2338;SDS011;1180;51.438;6.978;2023-02-28T09:31:24;7.25;;;3.38;;
2338;SDS011;1180;51.438;6.978;2023-02-28T09:33:52;3.17;;;2.88;;
2338;SDS011;1180;51.438;6.978;2023-02-28T09:36:19;5.35;;;3.50;;
2338;SDS011;1180;51.438;6.978;2023-02-28T09:38:45;5.20;;;2.97;;
2338;SDS011;1180;51.438;6.978;2023-02-28T09:41:23;3.17;;;2.88;;
2338;SDS011;1180;51.438;6.978;2023-02-28T09:43:52;2.95;;;2.50;;
2338;SDS011;1180;51.438;6.978;2023-02-28T09:46:28;5.35;;;2.80;;
2338;SDS011;1180;51.438;6.978;2023-02-28T09:49:39;4.63;;;2.42;;
2338;SDS011;1180;51.438;6.978;2023-02-28T09:52:04;3.45;;;2.50;;
2338;SDS011;1180;51.438;6.978;2023-02-28T09:54:34;4.05;;;2.45;;
2338;SDS011;1180;51.438;6.978;2023-02-28T09:59:42;2.97;;;2.40;;
2338;SDS011;1180;51.438;6.978;2023-02-28T10:05:04;2.38;;;2.00;;
2338;SDS011;1180;51.438;6.978;2023-02-28T10:07:43;1.80;;;1.70;;
2338;SDS011;1180;51.438;6.978;2023-02-28T10:10:48;4.43;;;2.33;;
2338;SDS011;1180;51.438;6.978;2023-02-28T10:13:23;1.60;;;1.50;;
2338;SDS011;1180;51.438;6.978;2023-02-28T10:16:00;2.33;;;1.67;;
2338;SDS011;1180;51.438;6.978;2023-02-28T10:18:31;6.13;;;2.38;;
2338;SDS011;1180;51.438;6.978;2023-02-28T10:21:12;2.78;;;2.35;;
2338;SDS011;1180;51.438;6.978;2023-02-28T10:23:43;1.83;;;1.70;;
2338;SDS011;1180;51.438;6.978;2023-02-28T10:26:13;2.85;;;2.15;;
2338;SDS011;1180;51.438;6.978;2023-02-28T10:28:43;2.90;;;2.13;;
2338;SDS011;1180;51.438;6.978;2023-02-28T10:31:17;2.20;;;1.90;;
2338;SDS011;1180;51.438;6.978;2023-02-28T10:33:44;2.33;;;1.65;;
2338;SDS011;1180;51.438;6.978;2023-02-28T10:36:17;2.17;;;1.57;;
2338;SDS011;1180;51.438;6.978;2023-02-28T10:38:44;2.33;;;2.13;;
2338;SDS011;1180;51.438;6.978;2023-02-28T10:41:30;2.67;;;2.10;;
2338;SDS011;1180;51.438;6.978;2023-02-28T10:44:12;1.73;;;1.63;;
2338;SDS011;1180;51.438;6.978;2023-02-28T10:46:41;2.42;;;1.65;;
2338;SDS011;1180;51.438;6.978;2023-02-28T10:49:28;2.90;;;2.05;;
2338;SDS011;1180;51.438;6.978;2023-02-28T10:51:57;2.30;;;1.50;;
2338;SDS011;1180;51.438;6.978;2023-02-28T10:54:27;6.57;;;2.80;;
2338;SDS011;1180;51.438;6.978;2023-02-28T11:00:05;2.78;;;1.92;;
2338;SDS011;1180;51.438;6.978;2023-02-28T11:02:38;2.67;;;1.80;;
2338;SDS011;1180;51.438;6.978;2023-02-28T11:05:29;1.60;;;1.50;;
2338;SDS011;1180;51.438;6.978;2023-02-28T11:08:11;3.15;;;1.60;;
2338;SDS011;1180;51.438;6.978;2023-02-28T11:10:39;3.17;;;1.73;;
2338;SDS011;1180;51.438;6.978;2023-02-28T11:13:05;1.90;;;1.50;;
2338;SDS011;1180;51.438;6.978;2023-02-28T11:15:31;2.57;;;1.80;;
2338;SDS011;1180;51.438;6.978;2023-02-28T11:20:25;3.63;;;1.77;;
2338;SDS011;1180;51.438;6.978;2023-02-28T11:22:53;2.05;;;1.88;;
2338;SDS011;1180;51.438;6.978;2023-02-28T11:25:25;2.53;;;2.25;;
2338;SDS011;1180;51.438;6.978;2023-02-28T11:27:55;3.40;;;2.30;;
2338;SDS011;1180;51.438;6.978;2023-02-28T11:32:56;2.25;;;2.05;;
2338;SDS011;1180;51.438;6.978;2023-02-28T11:37:53;1.98;;;1.70;;
2338;SDS011;1180;51.438;6.978;2023-02-28T11:40:20;1.90;;;1.53;;
2338;SDS011;1180;51.438;6.978;2023-02-28T11:45:53;2.05;;;1.95;;
2338;SDS011;1180;51.438;6.978;2023-02-28T11:51:28;2.42;;;1.92;;
2338;SDS011;1180;51.438;6.978;2023-02-28T11:56:43;2.38;;;2.15;;
2338;SDS011;1180;51.438;6.978;2023-02-28T12:04:53;1.83;;;1.70;;
2338;SDS011;1180;51.438;6.978;2023-02-28T12:10:26;3.92;;;2.35;;
2338;SDS011;1180;51.438;6.978;2023-02-28T12:13:21;3.53;;;2.57;;
2338;SDS011;1180;51.438;6.978;2023-02-28T12:26:38;2.10;;;1.90;;
2338;SDS011;1180;51.438;6.978;2023-02-28T12:29:14;3.30;;;2.33;;
2338;SDS011;1180;51.438;6.978;2023-02-28T12:31:49;2.17;;;1.93;;
2338;SDS011;1180;51.438;6.978;2023-02-28T12:34:52;3.60;;;2.30;;
2338;SDS011;1180;51.438;6.978;2023-02-28T12:37:17;2.15;;;1.90;;
2338;SDS011;1180;51.438;6.978;2023-02-28T12:39:51;2.23;;;2.03;;
2338;SDS011;1180;51.438;6.978;2023-02-28T12:45:40;3.28;;;2.60;;
2338;SDS011;1180;51.438;6.978;2023-02-28T12:47:40;2.20;;;1.87;;
2338;SDS011;1180;51.438;6.978;2023-02-28T12:50:10;2.80;;;2.40;;
2338;SDS011;1180;51.438;6.978;2023-02-28T12:57:56;3.28;;;2.60;;
2338;SDS011;1180;51.438;6.978;2023-02-28T13:00:29;2.53;;;2.33;;
2338;SDS011;1180;51.438;6.978;2023-02-28T13:11:39;2.63;;;2.40;;
2338;SDS011;1180;51.438;6.978;2023-02-28T13:19:32;2.20;;;2.00;;
2338;SDS011;1180;51.438;6.978;2023-02-28T13:21:59;2.77;;;2.40;;
2338;SDS011;1180;51.438;6.978;2023-02-28T13:27:23;3.10;;;2.80;;
2338;SDS011;1180;51.438;6.978;2023-02-28T13:29:49;2.97;;;2.53;;
2338;SDS011;1180;51.438;6.978;2023-02-28T13:32:20;3.07;;;2.27;;
2338;SDS011;1180;51.438;6.978;2023-02-28T13:39:55;5.73;;;2.40;;
2338;SDS011;1180;51.438;6.978;2023-02-28T13:47:31;4.10;;;2.60;;
2338;SDS011;1180;51.438;6.978;2023-02-28T13:52:52;2.70;;;2.33;;
2338;SDS011;1180;51.438;6.978;2023-02-28T13:55:24;2.97;;;2.77;;
2338;SDS011;1180;51.438;6.978;2023-02-28T14:08:57;2.83;;;2.63;;
2338;SDS011;1180;51.438;6.978;2023-02-28T14:11:44;3.03;;;2.80;;
2338;SDS011;1180;51.438;6.978;2023-02-28T14:14:53;3.77;;;3.10;;
2338;SDS011;1180;51.438;6.978;2023-02-28T14:17:04;3.50;;;2.97;;
2338;SDS011;1180;51.438;6.978;2023-02-28T14:19:32;3.60;;;3.30;;
2338;SDS011;1180;51.438;6.978;2023-02-28T14:22:15;7.10;;;3.60;;
2338;SDS011;1180;51.438;6.978;2023-02-28T14:30:43;5.13;;;3.00;;
2338;SDS011;1180;51.438;6.978;2023-02-28T14:36:13;3.63;;;3.33;;
2338;SDS011;1180;51.438;6.978;2023-02-28T14:38:48;3.50;;;3.07;;
2338;SDS011;1180;51.438;6.978;2023-02-28T14:41:34;4.20;;;3.10;;
2338;SDS011;1180;51.438;6.978;2023-02-28T14:44:13;2.93;;;2.73;;
2338;SDS011;1180;51.438;6.978;2023-02-28T14:46:44;5.03;;;3.63;;
2338;SDS011;1180;51.438;6.978;2023-02-28T14:49:17;3.43;;;3.10;;
2338;SDS011;1180;51.438;6.978;2023-02-28T14:52:03;3.40;;;3.10;;
2338;SDS011;1180;51.438;6.978;2023-02-28T14:54:39;3.67;;;3.27;;
2338;SDS011;1180;51.438;6.978;2023-02-28T14:57:05;2.80;;;2.60;;
2338;SDS011;1180;51.438;6.978;2023-02-28T14:59:35;3.50;;;3.20;;
2338;SDS011;1180;51.438;6.978;2023-02-28T15:02:15;3.47;;;3.17;;
2338;SDS011;1180;51.438;6.978;2023-02-28T15:04:43;3.53;;;3.23;;
2338;SDS011;1180;51.438;6.978;2023-02-28T15:07:13;4.70;;;3.03;;
2338;SDS011;1180;51.438;6.978;2023-02-28T15:09:39;3.43;;;2.93;;
2338;SDS011;1180;51.438;6.978;2023-02-28T15:12:05;3.47;;;3.10;;
2338;SDS011;1180;51.438;6.978;2023-02-28T15:14:30;4.10;;;3.70;;
2338;SDS011;1180;51.438;6.978;2023-02-28T15:16:57;3.20;;;2.87;;
2338;SDS011;1180;51.438;6.978;2023-02-28T15:19:32;4.00;;;3.03;;
2338;SDS011;1180;51.438;6.978;2023-02-28T15:22:04;2.70;;;2.50;;
2338;SDS011;1180;51.438;6.978;2023-02-28T15:24:37;3.47;;;3.10;;
2338;SDS011;1180;51.438;6.978;2023-02-28T15:27:14;3.93;;;3.53;;
2338;SDS011;1180;51.438;6.978;2023-02-28T15:29:47;3.63;;;2.90;;
2338;SDS011;1180;51.438;6.978;2023-02-28T15:34:53;4.00;;;3.60;;
2338;SDS011;1180;51.438;6.978;2023-02-28T15:40:17;3.03;;;2.77;;
2338;SDS011;1180;51.438;6.978;2023-02-28T15:42:58;3.23;;;2.93;;
2338;SDS011;1180;51.438;6.978;2023-02-28T15:45:34;3.40;;;3.10;;
2338;SDS011;1180;51.438;6.978;2023-02-28T15:48:04;2.93;;;2.73;;
2338;SDS011;1180;51.438;6.978;2023-02-28T15:50:31;5.60;;;3.20;;
2338;SDS011;1180;51.438;6.978;2023-02-28T15:52:56;3.47;;;3.10;;
2338;SDS011;1180;51.438;6.978;2023-02-28T15:55:27;3.70;;;3.03;;
2338;SDS011;1180;51.438;6.978;2023-02-28T15:57:54;2.20;;;2.00;;
2338;SDS011;1180;51.438;6.978;2023-02-28T16:00:25;3.17;;;2.97;;
2338;SDS011;1180;51.438;6.978;2023-02-28T16:02:57;3.57;;;3.27;;
2338;SDS011;1180;51.438;6.978;2023-02-28T16:05:27;3.10;;;2.80;;
2338;SDS011;1180;51.438;6.978;2023-02-28T16:07:57;3.53;;;3.23;;
2338;SDS011;1180;51.438;6.978;2023-02-28T16:10:24;4.10;;;3.80;;
2338;SDS011;1180;51.438;6.978;2023-02-28T16:12:55;5.33;;;3.13;;
2338;SDS011;1180;51.438;6.978;2023-02-28T16:15:22;5.90;;;2.90;;
2338;SDS011;1180;51.438;6.978;2023-02-28T16:17:54;3.10;;;2.90;;
2338;SDS011;1180;51.438;6.978;2023-02-28T16:20:24;5.00;;;3.80;;
2338;SDS011;1180;51.438;6.978;2023-02-28T16:22:51;3.10;;;2.90;;
2338;SDS011;1180;51.438;6.978;2023-02-28T16:25:21;4.60;;;3.00;;
2338;SDS011;1180;51.438;6.978;2023-02-28T16:27:50;3.90;;;3.50;;
2338;SDS011;1180;51.438;6.978;2023-02-28T16:30:26;4.07;;;3.20;;
2338;SDS011;1180;51.438;6.978;2023-02-28T16:32:56;3.20;;;2.93;;
2338;SDS011;1180;51.438;6.978;2023-02-28T16:35:21;3.87;;;3.50;;
2338;SDS011;1180;51.438;6.978;2023-02-28T16:37:47;3.67;;;3.27;;
2338;SDS011;1180;51.438;6.978;2023-02-28T16:40:14;4.40;;;2.73;;
2338;SDS011;1180;51.438;6.978;2023-02-28T16:42:45;3.63;;;3.27;;
2338;SDS011;1180;51.438;6.978;2023-02-28T16:45:23;4.20;;;3.20;;
2338;SDS011;1180;51.438;6.978;2023-02-28T16:47:51;2.67;;;2.47;;
2338;SDS011;1180;51.438;6.978;2023-02-28T16:50:21;4.17;;;3.40;;
2338;SDS011;1180;51.438;6.978;2023-02-28T16:52:48;4.90;;;3.40;;
2338;SDS011;1180;51.438;6.978;2023-02-28T16:55:14;3.40;;;3.10;;
2338;SDS011;1180;51.438;6.978;2023-02-28T16:57:40;3.97;;;3.60;;
2338;SDS011;1180;51.438;6.978;2023-02-28T17:00:07;4.00;;;3.00;;
2338;SDS011;1180;51.438;6.978;2023-02-28T17:02:36;6.07;;;3.40;;
2338;SDS011;1180;51.438;6.978;2023-02-28T17:05:01;3.10;;;2.90;;
2338;SDS011;1180;51.438;6.978;2023-02-28T17:07:26;3.73;;;3.37;;
2338;SDS011;1180;51.438;6.978;2023-02-28T17:09:52;3.70;;;3.33;;
2338;SDS011;1180;51.438;6.978;2023-02-28T17:12:17;3.30;;;3.00;;
2338;SDS011;1180;51.438;6.978;2023-02-28T17:14:42;5.13;;;3.13;;
2338;SDS011;1180;51.438;6.978;2023-02-28T17:17:10;3.40;;;3.10;;
2338;SDS011;1180;51.438;6.978;2023-02-28T17:19:45;3.60;;;3.00;;
2338;SDS011;1180;51.438;6.978;2023-02-28T17:22:10;4.90;;;3.43;;
2338;SDS011;1180;51.438;6.978;2023-02-28T17:24:35;6.40;;;3.23;;
2338;SDS011;1180;51.438;6.978;2023-02-28T17:27:01;5.03;;;3.50;;
2338;SDS011;1180;51.438;6.978;2023-02-28T17:29:26;3.20;;;2.77;;
2338;SDS011;1180;51.438;6.978;2023-02-28T17:31:52;3.57;;;2.93;;
2338;SDS011;1180;51.438;6.978;2023-02-28T17:34:17;4.03;;;3.30;;
2338;SDS011;1180;51.438;6.978;2023-02-28T17:36:45;4.23;;;3.30;;
2338;SDS011;1180;51.438;6.978;2023-02-28T17:39:11;3.27;;;2.80;;
2338;SDS011;1180;51.438;6.978;2023-02-28T17:41:39;4.07;;;3.72;;
2338;SDS011;1180;51.438;6.978;2023-02-28T17:44:06;5.53;;;3.00;;
2338;SDS011;1180;51.438;6.978;2023-02-28T17:46:33;3.80;;;3.23;;
2338;SDS011;1180;51.438;6.978;2023-02-28T17:48:58;3.30;;;2.93;;
2338;SDS011;1180;51.438;6.978;2023-02-28T17:51:23;4.37;;;3.90;;